sensor_id;sensor_type;location;lat;lon;timestamp;P1;durP1;ratioP1;P2;durP2;ratioP2
79631;SDS011;69108;41.120;16.874;2023-04-07T10:51:10;8.38;;;2.95;;
79631;SDS011;69108;41.120;16.874;2023-04-07T10:55:41;8.20;;;3.08;;
79631;SDS011;69108;41.120;16.874;2023-04-07T11:01:17;6.10;;;2.50;;
79631;SDS011;69108;41.120;16.874;2023-04-07T11:03:56;5.78;;;2.70;;
79631;SDS011;69108;41.120;16.874;2023-04-07T11:06:24;5.82;;;2.67;;
79631;SDS011;69108;41.120;16.874;2023-04-07T11:10:47;6.38;;;2.60;;
79631;SDS011;69108;41.120;16.874;2023-04-07T11:13:15;7.82;;;2.70;;
79631;SDS011;69108;41.120;16.874;2023-04-07T11:15:42;5.47;;;2.55;;
79631;SDS011;69108;41.120;16.874;2023-04-07T11:18:22;6.03;;;2.75;;
79631;SDS011;69108;41.120;16.874;2023-04-07T11:20:57;7.22;;;2.60;;
79631;SDS011;69108;41.120;16.874;2023-04-07T11:23:25;5.18;;;2.53;;
79631;SDS011;69108;41.120;16.874;2023-04-07T11:25:58;6.65;;;2.72;;
79631;SDS011;69108;41.120;16.874;2023-04-07T11:28:26;6.97;;;2.50;;
79631;SDS011;69108;41.120;16.874;2023-04-07T11:30:53;7.57;;;2.85;;
79631;SDS011;69108;41.120;16.874;2023-04-07T11:33:21;6.18;;;2.60;;
79631;SDS011;69108;41.120;16.874;2023-04-07T11:35:51;5.75;;;2.72;;
79631;SDS011;69108;41.120;16.874;2023-04-07T11:38:20;4.93;;;2.50;;
79631;SDS011;69108;41.120;16.874;2023-04-07T11:41:12;4.47;;;2.40;;
79631;SDS011;69108;41.120;16.874;2023-04-07T11:43:40;8.00;;;2.63;;
79631;SDS011;69108;41.120;16.874;2023-04-07T11:46:08;6.47;;;2.75;;
79631;SDS011;69108;41.120;16.874;2023-04-07T11:48:36;5.05;;;2.40;;
79631;SDS011;69108;41.120;16.874;2023-04-07T11:51:03;6.30;;;2.60;;
79631;SDS011;69108;41.120;16.874;2023-04-07T11:53:31;7.22;;;2.53;;
79631;SDS011;69108;41.120;16.874;2023-04-07T11:56:00;6.00;;;3.05;;
79631;SDS011;69108;41.120;16.874;2023-04-07T11:58:35;5.65;;;2.65;;
79631;SDS011;69108;41.120;16.874;2023-04-07T12:01:03;4.72;;;2.38;;
79631;SDS011;69108;41.120;16.874;2023-04-07T12:03:33;5.55;;;2.65;;
79631;SDS011;69108;41.120;16.874;2023-04-07T12:06:01;6.03;;;2.80;;
79631;SDS011;69108;41.120;16.874;2023-04-07T12:08:39;5.60;;;2.60;;
79631;SDS011;69108;41.120;16.874;2023-04-07T12:11:06;5.80;;;2.80;;
79631;SDS011;69108;41.120;16.874;2023-04-07T12:13:38;5.93;;;3.03;;
79631;SDS011;69108;41.120;16.874;2023-04-07T12:16:07;8.15;;;3.67;;
79631;SDS011;69108;41.120;16.874;2023-04-07T12:18:33;5.97;;;3.58;;
79631;SDS011;69108;41.120;16.874;2023-04-07T12:21:00;7.50;;;4.68;;
79631;SDS011;69108;41.120;16.874;2023-04-07T12:23:27;8.02;;;5.00;;
79631;SDS011;69108;41.120;16.874;2023-04-07T12:25:54;7.88;;;5.38;;
79631;SDS011;69108;41.120;16.874;2023-04-07T12:28:21;7.82;;;5.57;;
79631;SDS011;69108;41.120;16.874;2023-04-07T12:30:49;7.65;;;6.10;;
79631;SDS011;69108;41.120;16.874;2023-04-07T12:33:19;12.75;;;6.65;;
79631;SDS011;69108;41.120;16.874;2023-04-07T12:35:46;11.88;;;7.18;;
79631;SDS011;69108;41.120;16.874;2023-04-07T12:38:13;11.35;;;7.68;;
79631;SDS011;69108;41.120;16.874;2023-04-07T12:40:40;10.77;;;7.45;;
79631;SDS011;69108;41.120;16.874;2023-04-07T12:43:07;9.20;;;7.63;;
79631;SDS011;69108;41.120;16.874;2023-04-07T12:45:34;10.75;;;7.72;;
79631;SDS011;69108;41.120;16.874;2023-04-07T12:48:02;12.85;;;7.70;;
79631;SDS011;69108;41.120;16.874;2023-04-07T12:50:29;10.18;;;7.30;;
79631;SDS011;69108;41.120;16.874;2023-04-07T12:52:58;10.43;;;7.45;;
79631;SDS011;69108;41.120;16.874;2023-04-07T12:55:27;10.50;;;7.90;;
79631;SDS011;69108;41.120;16.874;2023-04-07T12:57:55;11.70;;;7.50;;
79631;SDS011;69108;41.120;16.874;2023-04-07T13:00:21;10.95;;;7.35;;
79631;SDS011;69108;41.120;16.874;2023-04-07T13:02:51;8.82;;;6.90;;
79631;SDS011;69108;41.120;16.874;2023-04-07T13:05:20;10.18;;;6.28;;
79631;SDS011;69108;41.120;16.874;2023-04-07T13:07:47;10.52;;;6.53;;
79631;SDS011;69108;41.120;16.874;2023-04-07T13:10:14;12.38;;;6.93;;
79631;SDS011;69108;41.120;16.874;2023-04-07T13:12:41;9.85;;;6.70;;
79631;SDS011;69108;41.120;16.874;2023-04-07T13:15:07;9.90;;;6.53;;
79631;SDS011;69108;41.120;16.874;2023-04-07T13:17:35;9.32;;;6.07;;
79631;SDS011;69108;41.120;16.874;2023-04-07T13:20:05;8.45;;;6.13;;
79631;SDS011;69108;41.120;16.874;2023-04-07T13:22:35;9.18;;;5.82;;
79631;SDS011;69108;41.120;16.874;2023-04-07T13:25:02;7.63;;;5.20;;
79631;SDS011;69108;41.120;16.874;2023-04-07T13:27:29;7.70;;;5.30;;
79631;SDS011;69108;41.120;16.874;2023-04-07T13:29:56;8.35;;;5.35;;
79631;SDS011;69108;41.120;16.874;2023-04-07T13:32:23;8.10;;;5.05;;
79631;SDS011;69108;41.120;16.874;2023-04-07T13:34:51;8.38;;;5.38;;
79631;SDS011;69108;41.120;16.874;2023-04-07T13:37:18;7.55;;;4.68;;
79631;SDS011;69108;41.120;16.874;2023-04-07T13:39:46;10.13;;;5.25;;
79631;SDS011;69108;41.120;16.874;2023-04-07T13:42:13;7.40;;;4.45;;
79631;SDS011;69108;41.120;16.874;2023-04-07T13:44:49;6.78;;;4.43;;
79631;SDS011;69108;41.120;16.874;2023-04-07T13:47:18;6.53;;;4.90;;
79631;SDS011;69108;41.120;16.874;2023-04-07T13:49:49;8.77;;;4.80;;
79631;SDS011;69108;41.120;16.874;2023-04-07T13:52:16;9.52;;;4.97;;
79631;SDS011;69108;41.120;16.874;2023-04-07T13:54:43;7.88;;;4.22;;
79631;SDS011;69108;41.120;16.874;2023-04-07T13:57:13;6.75;;;3.88;;
79631;SDS011;69108;41.120;16.874;2023-04-07T13:59:44;6.55;;;4.03;;
79631;SDS011;69108;41.120;16.874;2023-04-07T14:02:12;7.15;;;4.35;;
79631;SDS011;69108;41.120;16.874;2023-04-07T14:04:39;6.85;;;4.40;;
79631;SDS011;69108;41.120;16.874;2023-04-07T14:07:05;5.93;;;4.20;;
79631;SDS011;69108;41.120;16.874;2023-04-07T14:09:32;5.57;;;3.70;;
79631;SDS011;69108;41.120;16.874;2023-04-07T14:12:01;7.72;;;4.32;;
79631;SDS011;69108;41.120;16.874;2023-04-07T14:14:30;6.70;;;3.58;;
79631;SDS011;69108;41.120;16.874;2023-04-07T14:16:58;6.18;;;3.50;;
79631;SDS011;69108;41.120;16.874;2023-04-07T14:19:24;6.35;;;3.83;;
79631;SDS011;69108;41.120;16.874;2023-04-07T14:21:51;9.25;;;3.95;;
79631;SDS011;69108;41.120;16.874;2023-04-07T14:24:18;7.55;;;3.63;;
79631;SDS011;69108;41.120;16.874;2023-04-07T14:26:45;6.10;;;3.58;;
79631;SDS011;69108;41.120;16.874;2023-04-07T14:29:13;7.20;;;3.42;;
79631;SDS011;69108;41.120;16.874;2023-04-07T14:31:41;6.57;;;3.45;;
79631;SDS011;69108;41.120;16.874;2023-04-07T14:34:09;6.38;;;3.72;;
79631;SDS011;69108;41.120;16.874;2023-04-07T14:36:36;6.47;;;3.40;;
79631;SDS011;69108;41.120;16.874;2023-04-07T14:39:05;5.32;;;3.00;;
79631;SDS011;69108;41.120;16.874;2023-04-07T14:43:59;5.47;;;3.03;;
79631;SDS011;69108;41.120;16.874;2023-04-07T14:46:32;6.38;;;3.10;;
79631;SDS011;69108;41.120;16.874;2023-04-07T14:48:59;5.90;;;2.97;;
79631;SDS011;69108;41.120;16.874;2023-04-07T14:51:26;5.13;;;3.13;;
79631;SDS011;69108;41.120;16.874;2023-04-07T14:53:54;7.75;;;3.13;;
79631;SDS011;69108;41.120;16.874;2023-04-07T14:56:21;4.70;;;3.00;;
79631;SDS011;69108;41.120;16.874;2023-04-07T14:58:49;7.03;;;3.20;;
79631;SDS011;69108;41.120;16.874;2023-04-07T15:01:16;5.05;;;2.97;;
79631;SDS011;69108;41.120;16.874;2023-04-07T15:03:45;6.82;;;3.05;;
79631;SDS011;69108;41.120;16.874;2023-04-07T15:06:12;5.50;;;3.15;;
79631;SDS011;69108;41.120;16.874;2023-04-07T15:08:40;5.72;;;3.00;;
79631;SDS011;69108;41.120;16.874;2023-04-07T15:11:09;6.45;;;2.90;;
79631;SDS011;69108;41.120;16.874;2023-04-07T15:13:36;4.80;;;2.50;;
79631;SDS011;69108;41.120;16.874;2023-04-07T15:16:06;5.55;;;2.80;;
79631;SDS011;69108;41.120;16.874;2023-04-07T15:18:33;5.50;;;2.83;;
79631;SDS011;69108;41.120;16.874;2023-04-07T15:21:03;5.88;;;2.83;;
79631;SDS011;69108;41.120;16.874;2023-04-07T15:23:32;5.90;;;2.88;;
79631;SDS011;69108;41.120;16.874;2023-04-07T15:26:01;6.03;;;2.80;;
79631;SDS011;69108;41.120;16.874;2023-04-07T15:28:30;4.70;;;2.70;;
79631;SDS011;69108;41.120;16.874;2023-04-07T15:30:59;5.03;;;2.80;;
79631;SDS011;69108;41.120;16.874;2023-04-07T15:33:26;5.57;;;2.65;;
79631;SDS011;69108;41.120;16.874;2023-04-07T15:35:53;5.25;;;2.75;;
79631;SDS011;69108;41.120;16.874;2023-04-07T15:40:49;5.82;;;2.70;;
79631;SDS011;69108;41.120;16.874;2023-04-07T15:43:17;4.47;;;2.40;;
79631;SDS011;69108;41.120;16.874;2023-04-07T15:45:44;5.18;;;2.70;;
79631;SDS011;69108;41.120;16.874;2023-04-07T15:48:11;4.95;;;2.40;;
79631;SDS011;69108;41.120;16.874;2023-04-07T15:53:57;5.78;;;3.03;;
79631;SDS011;69108;41.120;16.874;2023-04-07T15:56:25;4.40;;;2.63;;
79631;SDS011;69108;41.120;16.874;2023-04-07T15:58:52;5.53;;;2.85;;
79631;SDS011;69108;41.120;16.874;2023-04-07T16:01:18;5.20;;;2.90;;
79631;SDS011;69108;41.120;16.874;2023-04-07T16:03:46;4.72;;;2.40;;
79631;SDS011;69108;41.120;16.874;2023-04-07T16:06:12;5.53;;;3.20;;
79631;SDS011;69108;41.120;16.874;2023-04-07T16:08:39;4.60;;;2.78;;
79631;SDS011;69108;41.120;16.874;2023-04-07T16:11:08;4.60;;;2.65;;
79631;SDS011;69108;41.120;16.874;2023-04-07T16:13:35;4.47;;;2.75;;
79631;SDS011;69108;41.120;16.874;2023-04-07T16:16:02;5.65;;;2.72;;
79631;SDS011;69108;41.120;16.874;2023-04-07T16:18:29;5.95;;;2.90;;
79631;SDS011;69108;41.120;16.874;2023-04-07T16:20:56;4.90;;;2.70;;
79631;SDS011;69108;41.120;16.874;2023-04-07T16:23:23;6.20;;;2.67;;
79631;SDS011;69108;41.120;16.874;2023-04-07T16:25:50;4.82;;;2.70;;
79631;SDS011;69108;41.120;16.874;2023-04-07T16:28:18;5.72;;;2.80;;
79631;SDS011;69108;41.120;16.874;2023-04-07T16:30:45;4.78;;;2.58;;
79631;SDS011;69108;41.120;16.874;2023-04-07T16:33:12;5.57;;;2.72;;
79631;SDS011;69108;41.120;16.874;2023-04-07T16:35:39;5.05;;;2.90;;
79631;SDS011;69108;41.120;16.874;2023-04-07T16:38:06;5.43;;;2.53;;
79631;SDS011;69108;41.120;16.874;2023-04-07T16:40:33;4.78;;;2.65;;
79631;SDS011;69108;41.120;16.874;2023-04-07T16:43:00;4.95;;;2.80;;
79631;SDS011;69108;41.120;16.874;2023-04-07T16:45:29;4.53;;;2.50;;
79631;SDS011;69108;41.120;16.874;2023-04-07T16:47:56;5.68;;;2.33;;
79631;SDS011;69108;41.120;16.874;2023-04-07T16:50:22;5.97;;;2.60;;
79631;SDS011;69108;41.120;16.874;2023-04-07T16:52:49;4.57;;;2.60;;
79631;SDS011;69108;41.120;16.874;2023-04-07T16:55:17;4.82;;;2.70;;
79631;SDS011;69108;41.120;16.874;2023-04-07T16:57:44;5.05;;;2.40;;
79631;SDS011;69108;41.120;16.874;2023-04-07T17:00:11;6.93;;;2.42;;
79631;SDS011;69108;41.120;16.874;2023-04-07T17:02:40;4.63;;;2.85;;
79631;SDS011;69108;41.120;16.874;2023-04-07T17:05:07;6.75;;;2.70;;
79631;SDS011;69108;41.120;16.874;2023-04-07T17:07:34;5.95;;;2.60;;
79631;SDS011;69108;41.120;16.874;2023-04-07T17:10:01;5.18;;;2.60;;
79631;SDS011;69108;41.120;16.874;2023-04-07T17:12:28;6.60;;;2.88;;
79631;SDS011;69108;41.120;16.874;2023-04-07T17:14:55;6.30;;;2.47;;
79631;SDS011;69108;41.120;16.874;2023-04-07T17:17:22;5.20;;;2.60;;
79631;SDS011;69108;41.120;16.874;2023-04-07T17:19:50;5.40;;;2.50;;
79631;SDS011;69108;41.120;16.874;2023-04-07T17:22:17;5.82;;;2.67;;
79631;SDS011;69108;41.120;16.874;2023-04-07T17:24:44;5.57;;;2.42;;
79631;SDS011;69108;41.120;16.874;2023-04-07T17:27:11;6.32;;;2.95;;
79631;SDS011;69108;41.120;16.874;2023-04-07T17:29:38;6.38;;;2.38;;
79631;SDS011;69108;41.120;16.874;2023-04-07T17:32:05;5.65;;;2.15;;
